Eutawville, SC (29048)

11:48 AM EST on December 06, 2016 (GMT -0500)
Dingle Pond | | Change Station

Elev 95 ft 33.51 °N, 80.41 °W | Updated 0 second ago

Rain
Rain
56.5 °F
Feels Like 56.5 °F
N
2.2
Wind Variable Wind from NW
Gusts 6.0 mph

Today
High -- | Low -- °F
--% Chance of Precip.
Yesterday
High -- | Low -- °F
Precip. -- in
Pressure 29.83 in
Visibility 4.0 miles
Clouds Overcast 400 ft
Dew Point 56 °F
Humidity 99%
Rainfall 0.72 in
Snow Depth Not available.
7:11 AM 5:13 PM
Waxing Crescent, 43% visible
METAR KMNI 061415Z AUTO 04005KT 4SM RA OVC004 11/10 A2983 RMK AO2 P0002
Pressure 29.83 in
Visibility 4.0 miles
Clouds Overcast 400 ft
Dew Point 56 °F
Humidity 99%
Rainfall 0.72 in
Snow Depth Not available.
7:11 AM 5:13 PM
Waxing Crescent, 43% visible
METAR KMNI 061415Z AUTO 04005KT 4SM RA OVC004 11/10 A2983 RMK AO2 P0002

10-Day Weather Forecast

Almanac

Astronomy

Dec. 06, 2016 Rise Set
Actual Time
Civil Twilight
Nautical Twilight
Astronomical Twilight
Moon
Length of Visible Light
Length of Day
Tomorrow will be .
, % of the Moon is Illuminated

Today's Extremes

State Highs State Lows

Community

WunderPhotos

Upload Photos

1,955,983 photos uploaded!

WunderBlog® & News

Nearby

Air Quality

  Air Quality AQ Index Pollutant
Not available.

Snow Depth

Station Depth Elevation

Earthquake Activity

City Distance Mag. Time & Date
Minimum magnitude displayed is 2.5.

Coastal Water Temperatures

Place Temperature

Stations

Nearby Weather Stations

Station Location Temp. Windchill Dew Point Humidity Wind Precip. Elev Updated Type
                   

Watches & Warnings

There are currently no watches in effect.